sensor_id;sensor_type;location;lat;lon;timestamp;P1;durP1;ratioP1;P2;durP2;ratioP2
64678;SDS011;51094;53.864;27.676;2023-03-26T00:01:26;5.45;;;5.25;;
64678;SDS011;51094;53.864;27.676;2023-03-26T00:03:55;5.25;;;5.15;;
64678;SDS011;51094;53.864;27.676;2023-03-26T00:06:31;5.40;;;5.30;;
64678;SDS011;51094;53.864;27.676;2023-03-26T00:09:02;5.57;;;5.47;;
64678;SDS011;51094;53.864;27.676;2023-03-26T00:11:31;5.53;;;5.32;;
64678;SDS011;51094;53.864;27.676;2023-03-26T00:13:58;5.75;;;5.65;;
64678;SDS011;51094;53.864;27.676;2023-03-26T00:16:27;5.40;;;5.20;;
64678;SDS011;51094;53.864;27.676;2023-03-26T00:18:56;5.57;;;5.47;;
64678;SDS011;51094;53.864;27.676;2023-03-26T00:21:25;5.15;;;5.05;;
64678;SDS011;51094;53.864;27.676;2023-03-26T00:23:54;5.38;;;5.28;;
64678;SDS011;51094;53.864;27.676;2023-03-26T00:26:25;5.38;;;5.28;;
64678;SDS011;51094;53.864;27.676;2023-03-26T00:28:53;5.20;;;5.00;;
64678;SDS011;51094;53.864;27.676;2023-03-26T00:31:28;5.22;;;5.13;;
64678;SDS011;51094;53.864;27.676;2023-03-26T00:33:55;4.80;;;4.70;;
64678;SDS011;51094;53.864;27.676;2023-03-26T00:36:22;4.68;;;4.57;;
64678;SDS011;51094;53.864;27.676;2023-03-26T00:38:53;4.60;;;4.50;;
64678;SDS011;51094;53.864;27.676;2023-03-26T00:41:21;4.93;;;4.82;;
64678;SDS011;51094;53.864;27.676;2023-03-26T00:43:53;5.25;;;5.15;;
64678;SDS011;51094;53.864;27.676;2023-03-26T00:48:49;5.03;;;4.93;;
64678;SDS011;51094;53.864;27.676;2023-03-26T00:51:17;4.80;;;4.70;;
64678;SDS011;51094;53.864;27.676;2023-03-26T00:53:46;4.50;;;4.40;;
64678;SDS011;51094;53.864;27.676;2023-03-26T00:56:14;4.90;;;4.80;;
64678;SDS011;51094;53.864;27.676;2023-03-26T00:58:41;4.80;;;4.70;;
64678;SDS011;51094;53.864;27.676;2023-03-26T01:01:10;4.60;;;4.50;;
64678;SDS011;51094;53.864;27.676;2023-03-26T01:03:40;4.47;;;4.38;;
64678;SDS011;51094;53.864;27.676;2023-03-26T01:06:23;6.15;;;5.95;;
64678;SDS011;51094;53.864;27.676;2023-03-26T01:09:03;7.32;;;7.13;;
64678;SDS011;51094;53.864;27.676;2023-03-26T01:11:42;4.70;;;4.60;;
64678;SDS011;51094;53.864;27.676;2023-03-26T01:14:11;5.00;;;4.90;;
64678;SDS011;51094;53.864;27.676;2023-03-26T01:21:56;3.90;;;3.80;;
64678;SDS011;51094;53.864;27.676;2023-03-26T01:24:24;3.78;;;3.67;;
64678;SDS011;51094;53.864;27.676;2023-03-26T01:29:53;4.70;;;4.50;;
64678;SDS011;51094;53.864;27.676;2023-03-26T01:40:27;4.85;;;4.65;;
64678;SDS011;51094;53.864;27.676;2023-03-26T01:43:09;4.82;;;4.63;;
64678;SDS011;51094;53.864;27.676;2023-03-26T01:45:43;4.85;;;4.75;;
64678;SDS011;51094;53.864;27.676;2023-03-26T01:48:13;4.68;;;4.57;;
64678;SDS011;51094;53.864;27.676;2023-03-26T01:50:42;5.03;;;4.93;;
64678;SDS011;51094;53.864;27.676;2023-03-26T01:53:09;5.00;;;4.90;;
64678;SDS011;51094;53.864;27.676;2023-03-26T01:55:45;5.38;;;5.28;;
64678;SDS011;51094;53.864;27.676;2023-03-26T01:58:26;4.60;;;4.50;;
64678;SDS011;51094;53.864;27.676;2023-03-26T02:01:43;4.82;;;4.72;;
64678;SDS011;51094;53.864;27.676;2023-03-26T02:03:58;4.63;;;4.53;;
64678;SDS011;51094;53.864;27.676;2023-03-26T02:06:36;4.63;;;4.53;;
64678;SDS011;51094;53.864;27.676;2023-03-26T02:09:20;5.03;;;4.93;;
64678;SDS011;51094;53.864;27.676;2023-03-26T02:11:50;4.53;;;4.43;;
64678;SDS011;51094;53.864;27.676;2023-03-26T02:14:17;4.85;;;4.75;;
64678;SDS011;51094;53.864;27.676;2023-03-26T02:16:44;4.80;;;4.70;;
64678;SDS011;51094;53.864;27.676;2023-03-26T02:19:13;4.65;;;4.55;;
64678;SDS011;51094;53.864;27.676;2023-03-26T02:21:47;4.10;;;4.00;;
64678;SDS011;51094;53.864;27.676;2023-03-26T02:24:18;3.83;;;3.72;;
64678;SDS011;51094;53.864;27.676;2023-03-26T02:26:47;3.75;;;3.65;;
64678;SDS011;51094;53.864;27.676;2023-03-26T02:29:14;4.40;;;4.30;;
64678;SDS011;51094;53.864;27.676;2023-03-26T02:31:47;4.25;;;4.15;;
64678;SDS011;51094;53.864;27.676;2023-03-26T02:34:15;4.40;;;4.30;;
64678;SDS011;51094;53.864;27.676;2023-03-26T02:36:49;4.70;;;4.60;;
64678;SDS011;51094;53.864;27.676;2023-03-26T02:39:16;4.43;;;4.32;;
64678;SDS011;51094;53.864;27.676;2023-03-26T02:41:50;4.20;;;4.10;;
64678;SDS011;51094;53.864;27.676;2023-03-26T02:44:17;4.35;;;4.25;;
64678;SDS011;51094;53.864;27.676;2023-03-26T02:46:56;4.90;;;4.70;;
64678;SDS011;51094;53.864;27.676;2023-03-26T02:49:42;4.82;;;4.72;;
64678;SDS011;51094;53.864;27.676;2023-03-26T02:52:14;4.75;;;4.65;;
64678;SDS011;51094;53.864;27.676;2023-03-26T02:54:45;5.10;;;5.00;;
64678;SDS011;51094;53.864;27.676;2023-03-26T02:57:18;5.80;;;5.60;;
64678;SDS011;51094;53.864;27.676;2023-03-26T03:00:04;5.78;;;5.57;;
64678;SDS011;51094;53.864;27.676;2023-03-26T03:02:46;5.65;;;5.55;;
64678;SDS011;51094;53.864;27.676;2023-03-26T03:05:32;5.30;;;5.20;;
64678;SDS011;51094;53.864;27.676;2023-03-26T03:08:21;5.60;;;5.40;;
64678;SDS011;51094;53.864;27.676;2023-03-26T03:11:18;5.10;;;5.00;;
64678;SDS011;51094;53.864;27.676;2023-03-26T03:13:50;5.20;;;5.10;;
64678;SDS011;51094;53.864;27.676;2023-03-26T03:16:21;5.00;;;4.90;;
64678;SDS011;51094;53.864;27.676;2023-03-26T03:18:48;5.00;;;4.90;;
64678;SDS011;51094;53.864;27.676;2023-03-26T03:21:21;5.00;;;4.90;;
64678;SDS011;51094;53.864;27.676;2023-03-26T03:23:49;5.45;;;5.25;;
64678;SDS011;51094;53.864;27.676;2023-03-26T03:26:18;5.20;;;5.00;;
64678;SDS011;51094;53.864;27.676;2023-03-26T03:28:50;5.85;;;5.65;;
64678;SDS011;51094;53.864;27.676;2023-03-26T03:31:17;5.72;;;5.53;;
64678;SDS011;51094;53.864;27.676;2023-03-26T03:33:44;5.47;;;5.38;;
64678;SDS011;51094;53.864;27.676;2023-03-26T03:36:13;5.40;;;5.30;;
64678;SDS011;51094;53.864;27.676;2023-03-26T03:38:46;5.68;;;5.57;;
64678;SDS011;51094;53.864;27.676;2023-03-26T03:41:17;5.68;;;5.47;;
64678;SDS011;51094;53.864;27.676;2023-03-26T03:43:45;5.60;;;5.40;;
64678;SDS011;51094;53.864;27.676;2023-03-26T03:46:21;5.80;;;5.60;;
64678;SDS011;51094;53.864;27.676;2023-03-26T03:48:48;4.82;;;4.72;;
64678;SDS011;51094;53.864;27.676;2023-03-26T03:51:21;5.80;;;5.60;;
64678;SDS011;51094;53.864;27.676;2023-03-26T03:53:51;5.60;;;5.40;;
64678;SDS011;51094;53.864;27.676;2023-03-26T03:56:32;5.30;;;5.10;;
64678;SDS011;51094;53.864;27.676;2023-03-26T03:59:25;5.38;;;5.18;;
64678;SDS011;51094;53.864;27.676;2023-03-26T04:01:52;5.45;;;5.25;;
64678;SDS011;51094;53.864;27.676;2023-03-26T04:04:27;5.20;;;5.10;;
64678;SDS011;51094;53.864;27.676;2023-03-26T04:06:58;5.07;;;4.97;;
64678;SDS011;51094;53.864;27.676;2023-03-26T04:09:32;5.18;;;5.07;;
64678;SDS011;51094;53.864;27.676;2023-03-26T04:12:03;4.72;;;4.63;;
64678;SDS011;51094;53.864;27.676;2023-03-26T04:14:38;4.63;;;4.53;;
64678;SDS011;51094;53.864;27.676;2023-03-26T04:17:13;4.43;;;4.32;;
64678;SDS011;51094;53.864;27.676;2023-03-26T04:19:42;4.40;;;4.30;;
64678;SDS011;51094;53.864;27.676;2023-03-26T04:22:12;4.40;;;4.30;;
64678;SDS011;51094;53.864;27.676;2023-03-26T04:24:50;4.45;;;4.35;;
64678;SDS011;51094;53.864;27.676;2023-03-26T04:27:29;4.38;;;4.28;;
64678;SDS011;51094;53.864;27.676;2023-03-26T04:30:17;4.07;;;3.97;;
64678;SDS011;51094;53.864;27.676;2023-03-26T04:32:52;3.80;;;3.70;;
64678;SDS011;51094;53.864;27.676;2023-03-26T04:35:26;3.53;;;3.42;;
64678;SDS011;51094;53.864;27.676;2023-03-26T04:37:56;3.20;;;3.20;;
64678;SDS011;51094;53.864;27.676;2023-03-26T04:40:31;3.28;;;3.17;;
64678;SDS011;51094;53.864;27.676;2023-03-26T04:43:11;3.08;;;3.08;;
64678;SDS011;51094;53.864;27.676;2023-03-26T04:45:58;2.80;;;2.80;;
64678;SDS011;51094;53.864;27.676;2023-03-26T04:48:30;2.60;;;2.60;;
64678;SDS011;51094;53.864;27.676;2023-03-26T04:50:57;2.22;;;2.22;;
64678;SDS011;51094;53.864;27.676;2023-03-26T04:53:25;2.15;;;2.15;;
64678;SDS011;51094;53.864;27.676;2023-03-26T04:56:45;2.20;;;2.20;;
64678;SDS011;51094;53.864;27.676;2023-03-26T04:59:24;2.20;;;2.20;;
64678;SDS011;51094;53.864;27.676;2023-03-26T05:01:56;1.50;;;1.50;;
64678;SDS011;51094;53.864;27.676;2023-03-26T05:04:27;1.65;;;1.65;;
64678;SDS011;51094;53.864;27.676;2023-03-26T05:07:00;1.60;;;1.60;;
64678;SDS011;51094;53.864;27.676;2023-03-26T05:09:44;1.70;;;1.70;;
64678;SDS011;51094;53.864;27.676;2023-03-26T05:12:29;1.92;;;1.92;;
64678;SDS011;51094;53.864;27.676;2023-03-26T05:15:07;3.63;;;3.63;;
64678;SDS011;51094;53.864;27.676;2023-03-26T05:17:55;1.60;;;1.60;;
64678;SDS011;51094;53.864;27.676;2023-03-26T05:20:27;1.63;;;1.63;;
64678;SDS011;51094;53.864;27.676;2023-03-26T05:22:55;1.60;;;1.60;;
64678;SDS011;51094;53.864;27.676;2023-03-26T05:25:34;1.40;;;1.40;;
64678;SDS011;51094;53.864;27.676;2023-03-26T05:28:03;1.55;;;1.55;;
64678;SDS011;51094;53.864;27.676;2023-03-26T05:31:19;2.08;;;2.08;;
64678;SDS011;51094;53.864;27.676;2023-03-26T05:33:49;2.42;;;2.42;;
64678;SDS011;51094;53.864;27.676;2023-03-26T05:36:16;1.90;;;1.90;;
64678;SDS011;51094;53.864;27.676;2023-03-26T05:38:57;2.13;;;2.13;;
64678;SDS011;51094;53.864;27.676;2023-03-26T05:41:43;2.05;;;2.05;;
64678;SDS011;51094;53.864;27.676;2023-03-26T05:44:10;2.00;;;2.00;;
64678;SDS011;51094;53.864;27.676;2023-03-26T05:46:37;2.20;;;2.20;;
64678;SDS011;51094;53.864;27.676;2023-03-26T05:49:05;2.00;;;2.00;;
64678;SDS011;51094;53.864;27.676;2023-03-26T05:51:34;2.10;;;2.10;;
64678;SDS011;51094;53.864;27.676;2023-03-26T05:54:19;3.90;;;3.85;;
64678;SDS011;51094;53.864;27.676;2023-03-26T05:57:05;2.10;;;2.10;;
64678;SDS011;51094;53.864;27.676;2023-03-26T05:59:50;2.03;;;2.03;;
64678;SDS011;51094;53.864;27.676;2023-03-26T06:02:36;2.05;;;2.05;;
64678;SDS011;51094;53.864;27.676;2023-03-26T06:05:33;2.15;;;2.15;;
64678;SDS011;51094;53.864;27.676;2023-03-26T06:08:16;2.00;;;2.00;;
64678;SDS011;51094;53.864;27.676;2023-03-26T06:11:01;2.22;;;2.22;;
64678;SDS011;51094;53.864;27.676;2023-03-26T06:13:34;2.10;;;2.10;;
64678;SDS011;51094;53.864;27.676;2023-03-26T06:16:01;2.00;;;2.00;;
64678;SDS011;51094;53.864;27.676;2023-03-26T06:18:31;2.17;;;2.17;;
64678;SDS011;51094;53.864;27.676;2023-03-26T06:21:16;2.53;;;2.50;;
64678;SDS011;51094;53.864;27.676;2023-03-26T06:24:04;1.80;;;1.80;;
64678;SDS011;51094;53.864;27.676;2023-03-26T06:27:02;1.88;;;1.88;;
64678;SDS011;51094;53.864;27.676;2023-03-26T06:29:46;2.08;;;2.08;;
64678;SDS011;51094;53.864;27.676;2023-03-26T06:32:23;2.40;;;2.40;;
64678;SDS011;51094;53.864;27.676;2023-03-26T06:34:55;2.15;;;2.15;;
64678;SDS011;51094;53.864;27.676;2023-03-26T06:37:22;2.33;;;2.33;;
64678;SDS011;51094;53.864;27.676;2023-03-26T06:39:55;2.38;;;2.38;;
64678;SDS011;51094;53.864;27.676;2023-03-26T06:42:40;1.90;;;1.90;;
64678;SDS011;51094;53.864;27.676;2023-03-26T06:45:50;2.20;;;2.20;;
64678;SDS011;51094;53.864;27.676;2023-03-26T06:48:36;2.30;;;2.30;;
64678;SDS011;51094;53.864;27.676;2023-03-26T06:51:16;2.47;;;2.47;;
64678;SDS011;51094;53.864;27.676;2023-03-26T06:54:10;2.60;;;2.60;;
64678;SDS011;51094;53.864;27.676;2023-03-26T06:56:55;3.60;;;3.60;;
64678;SDS011;51094;53.864;27.676;2023-03-26T06:59:31;4.30;;;4.20;;
64678;SDS011;51094;53.864;27.676;2023-03-26T07:02:16;4.03;;;3.92;;
64678;SDS011;51094;53.864;27.676;2023-03-26T07:05:08;3.30;;;3.30;;
64678;SDS011;51094;53.864;27.676;2023-03-26T07:07:54;3.58;;;3.47;;
64678;SDS011;51094;53.864;27.676;2023-03-26T07:10:40;3.28;;;3.28;;
64678;SDS011;51094;53.864;27.676;2023-03-26T07:13:27;3.58;;;3.58;;
64678;SDS011;51094;53.864;27.676;2023-03-26T07:16:12;3.00;;;3.00;;
64678;SDS011;51094;53.864;27.676;2023-03-26T07:19:09;2.90;;;2.90;;
64678;SDS011;51094;53.864;27.676;2023-03-26T07:21:38;3.03;;;3.03;;
64678;SDS011;51094;53.864;27.676;2023-03-26T07:24:22;2.95;;;2.95;;
64678;SDS011;51094;53.864;27.676;2023-03-26T07:27:16;3.10;;;3.10;;
64678;SDS011;51094;53.864;27.676;2023-03-26T07:29:58;2.90;;;2.90;;
64678;SDS011;51094;53.864;27.676;2023-03-26T07:36:39;2.70;;;2.70;;
64678;SDS011;51094;53.864;27.676;2023-03-26T07:45:43;2.38;;;2.38;;
64678;SDS011;51094;53.864;27.676;2023-03-26T07:48:44;2.33;;;2.33;;
64678;SDS011;51094;53.864;27.676;2023-03-26T07:51:47;2.30;;;2.30;;
64678;SDS011;51094;53.864;27.676;2023-03-26T07:54:28;2.50;;;2.50;;
64678;SDS011;51094;53.864;27.676;2023-03-26T08:00:52;2.50;;;2.50;;
64678;SDS011;51094;53.864;27.676;2023-03-26T08:15:21;1.70;;;1.70;;
64678;SDS011;51094;53.864;27.676;2023-03-26T08:20:44;1.42;;;1.42;;
64678;SDS011;51094;53.864;27.676;2023-03-26T08:28:32;1.60;;;1.60;;
64678;SDS011;51094;53.864;27.676;2023-03-26T08:31:35;1.67;;;1.67;;
64678;SDS011;51094;53.864;27.676;2023-03-26T08:34:05;2.30;;;2.30;;
64678;SDS011;51094;53.864;27.676;2023-03-26T08:36:35;1.63;;;1.63;;
64678;SDS011;51094;53.864;27.676;2023-03-26T08:39:03;1.70;;;1.70;;
64678;SDS011;51094;53.864;27.676;2023-03-26T08:44:29;2.42;;;2.42;;
64678;SDS011;51094;53.864;27.676;2023-03-26T08:52:49;2.22;;;2.22;;
64678;SDS011;51094;53.864;27.676;2023-03-26T08:56:00;1.80;;;1.80;;
64678;SDS011;51094;53.864;27.676;2023-03-26T08:59:00;2.00;;;2.00;;
64678;SDS011;51094;53.864;27.676;2023-03-26T09:36:17;2.60;;;2.60;;
64678;SDS011;51094;53.864;27.676;2023-03-26T09:38:57;3.20;;;3.20;;
64678;SDS011;51094;53.864;27.676;2023-03-26T09:52:24;3.40;;;3.40;;
64678;SDS011;51094;53.864;27.676;2023-03-26T09:55:05;3.40;;;3.40;;
64678;SDS011;51094;53.864;27.676;2023-03-26T10:30:54;1.42;;;1.42;;
64678;SDS011;51094;53.864;27.676;2023-03-26T10:36:29;1.30;;;1.30;;
64678;SDS011;51094;53.864;27.676;2023-03-26T10:44:52;1.60;;;1.60;;
64678;SDS011;51094;53.864;27.676;2023-03-26T10:53:02;1.60;;;1.60;;
64678;SDS011;51094;53.864;27.676;2023-03-26T10:55:43;1.70;;;1.70;;
64678;SDS011;51094;53.864;27.676;2023-03-26T10:58:16;1.98;;;1.98;;
64678;SDS011;51094;53.864;27.676;2023-03-26T11:00:57;2.08;;;2.08;;
64678;SDS011;51094;53.864;27.676;2023-03-26T11:06:22;2.00;;;2.00;;
64678;SDS011;51094;53.864;27.676;2023-03-26T11:17:31;2.08;;;2.08;;
64678;SDS011;51094;53.864;27.676;2023-03-26T11:22:49;1.70;;;1.70;;
64678;SDS011;51094;53.864;27.676;2023-03-26T11:33:14;1.90;;;1.90;;
64678;SDS011;51094;53.864;27.676;2023-03-26T11:36:00;2.00;;;2.00;;
64678;SDS011;51094;53.864;27.676;2023-03-26T11:38:36;1.90;;;1.90;;
64678;SDS011;51094;53.864;27.676;2023-03-26T11:41:11;1.90;;;1.90;;
64678;SDS011;51094;53.864;27.676;2023-03-26T11:44:19;1.80;;;1.80;;
64678;SDS011;51094;53.864;27.676;2023-03-26T11:46:51;1.90;;;1.90;;
64678;SDS011;51094;53.864;27.676;2023-03-26T11:49:24;1.67;;;1.67;;
64678;SDS011;51094;53.864;27.676;2023-03-26T11:51:52;1.80;;;1.80;;
64678;SDS011;51094;53.864;27.676;2023-03-26T11:54:19;2.00;;;2.00;;
64678;SDS011;51094;53.864;27.676;2023-03-26T11:56:47;1.85;;;1.85;;
64678;SDS011;51094;53.864;27.676;2023-03-26T11:59:49;1.77;;;1.77;;
64678;SDS011;51094;53.864;27.676;2023-03-26T12:02:27;1.75;;;1.75;;
64678;SDS011;51094;53.864;27.676;2023-03-26T12:08:01;1.85;;;1.85;;
64678;SDS011;51094;53.864;27.676;2023-03-26T12:10:36;1.70;;;1.70;;
64678;SDS011;51094;53.864;27.676;2023-03-26T12:16:20;1.67;;;1.67;;
64678;SDS011;51094;53.864;27.676;2023-03-26T12:18:56;1.50;;;1.50;;
64678;SDS011;51094;53.864;27.676;2023-03-26T12:21:48;1.33;;;1.33;;
64678;SDS011;51094;53.864;27.676;2023-03-26T12:24:23;1.50;;;1.50;;
64678;SDS011;51094;53.864;27.676;2023-03-26T12:26:55;1.30;;;1.30;;
64678;SDS011;51094;53.864;27.676;2023-03-26T12:29:28;1.40;;;1.40;;
64678;SDS011;51094;53.864;27.676;2023-03-26T12:32:11;1.30;;;1.30;;
64678;SDS011;51094;53.864;27.676;2023-03-26T12:34:39;1.30;;;1.30;;
64678;SDS011;51094;53.864;27.676;2023-03-26T12:37:07;1.20;;;1.20;;
64678;SDS011;51094;53.864;27.676;2023-03-26T12:40:05;1.42;;;1.42;;
64678;SDS011;51094;53.864;27.676;2023-03-26T12:42:54;1.60;;;1.60;;
64678;SDS011;51094;53.864;27.676;2023-03-26T12:45:42;1.48;;;1.48;;
64678;SDS011;51094;53.864;27.676;2023-03-26T12:48:10;1.40;;;1.40;;
64678;SDS011;51094;53.864;27.676;2023-03-26T12:50:50;1.33;;;1.33;;
64678;SDS011;51094;53.864;27.676;2023-03-26T13:15:51;1.67;;;1.67;;
64678;SDS011;51094;53.864;27.676;2023-03-26T13:23:49;1.80;;;1.80;;
64678;SDS011;51094;53.864;27.676;2023-03-26T13:47:06;0.70;;;0.70;;
64678;SDS011;51094;53.864;27.676;2023-03-26T13:49:48;0.75;;;0.75;;
64678;SDS011;51094;53.864;27.676;2023-03-26T13:52:39;0.60;;;0.60;;
64678;SDS011;51094;53.864;27.676;2023-03-26T14:00:57;0.47;;;0.47;;
64678;SDS011;51094;53.864;27.676;2023-03-26T14:06:11;0.40;;;0.40;;
64678;SDS011;51094;53.864;27.676;2023-03-26T14:08:59;0.40;;;0.40;;
64678;SDS011;51094;53.864;27.676;2023-03-26T14:14:33;0.50;;;0.50;;
64678;SDS011;51094;53.864;27.676;2023-03-26T14:17:30;0.57;;;0.57;;
64678;SDS011;51094;53.864;27.676;2023-03-26T14:36:52;0.68;;;0.68;;
64678;SDS011;51094;53.864;27.676;2023-03-26T14:42:41;0.70;;;0.70;;
64678;SDS011;51094;53.864;27.676;2023-03-26T14:51:05;0.98;;;0.98;;
64678;SDS011;51094;53.864;27.676;2023-03-26T14:53:41;0.90;;;0.90;;
64678;SDS011;51094;53.864;27.676;2023-03-26T14:56:32;1.30;;;1.30;;
64678;SDS011;51094;53.864;27.676;2023-03-26T15:11:16;1.90;;;1.90;;
64678;SDS011;51094;53.864;27.676;2023-03-26T15:25:59;1.90;;;1.90;;
64678;SDS011;51094;53.864;27.676;2023-03-26T15:31:10;1.90;;;1.90;;
64678;SDS011;51094;53.864;27.676;2023-03-26T15:39:44;1.20;;;1.20;;
64678;SDS011;51094;53.864;27.676;2023-03-26T15:42:40;0.90;;;0.90;;
64678;SDS011;51094;53.864;27.676;2023-03-26T15:53:33;0.93;;;0.93;;
64678;SDS011;51094;53.864;27.676;2023-03-26T15:59:04;1.10;;;1.10;;
64678;SDS011;51094;53.864;27.676;2023-03-26T16:01:44;1.00;;;1.00;;
64678;SDS011;51094;53.864;27.676;2023-03-26T16:12:29;1.40;;;1.40;;
64678;SDS011;51094;53.864;27.676;2023-03-26T16:20:44;2.80;;;2.80;;
64678;SDS011;51094;53.864;27.676;2023-03-26T16:45:40;1.98;;;1.98;;
64678;SDS011;51094;53.864;27.676;2023-03-26T16:56:36;1.70;;;1.70;;
64678;SDS011;51094;53.864;27.676;2023-03-26T17:13:50;2.00;;;2.00;;
64678;SDS011;51094;53.864;27.676;2023-03-26T17:16:33;2.28;;;2.28;;
64678;SDS011;51094;53.864;27.676;2023-03-26T17:19:13;2.00;;;2.00;;
64678;SDS011;51094;53.864;27.676;2023-03-26T17:21:44;2.10;;;2.10;;
64678;SDS011;51094;53.864;27.676;2023-03-26T17:30:58;2.60;;;2.50;;
64678;SDS011;51094;53.864;27.676;2023-03-26T17:33:35;2.22;;;2.22;;
64678;SDS011;51094;53.864;27.676;2023-03-26T17:41:11;2.47;;;2.47;;
64678;SDS011;51094;53.864;27.676;2023-03-26T17:43:43;2.10;;;2.10;;
64678;SDS011;51094;53.864;27.676;2023-03-26T17:48:49;2.30;;;2.30;;
64678;SDS011;51094;53.864;27.676;2023-03-26T17:51:28;2.40;;;2.40;;
64678;SDS011;51094;53.864;27.676;2023-03-26T17:56:53;2.30;;;2.30;;
64678;SDS011;51094;53.864;27.676;2023-03-26T17:59:24;2.42;;;2.42;;
64678;SDS011;51094;53.864;27.676;2023-03-26T18:01:54;2.70;;;2.70;;
64678;SDS011;51094;53.864;27.676;2023-03-26T18:04:27;2.50;;;2.50;;
64678;SDS011;51094;53.864;27.676;2023-03-26T18:09:39;2.10;;;2.10;;
64678;SDS011;51094;53.864;27.676;2023-03-26T18:15:08;2.00;;;2.00;;
64678;SDS011;51094;53.864;27.676;2023-03-26T18:17:48;2.00;;;2.00;;
64678;SDS011;51094;53.864;27.676;2023-03-26T18:20:22;2.17;;;2.17;;
64678;SDS011;51094;53.864;27.676;2023-03-26T18:22:52;2.00;;;2.00;;
64678;SDS011;51094;53.864;27.676;2023-03-26T18:25:24;1.90;;;1.90;;
64678;SDS011;51094;53.864;27.676;2023-03-26T18:27:55;1.90;;;1.90;;
64678;SDS011;51094;53.864;27.676;2023-03-26T18:30:23;1.98;;;1.98;;
64678;SDS011;51094;53.864;27.676;2023-03-26T18:32:52;1.90;;;1.90;;
64678;SDS011;51094;53.864;27.676;2023-03-26T18:35:38;1.80;;;1.80;;
64678;SDS011;51094;53.864;27.676;2023-03-26T18:38:11;2.00;;;2.00;;
64678;SDS011;51094;53.864;27.676;2023-03-26T18:40:42;2.30;;;2.30;;
64678;SDS011;51094;53.864;27.676;2023-03-26T18:43:15;2.33;;;2.33;;
64678;SDS011;51094;53.864;27.676;2023-03-26T18:45:59;1.90;;;1.90;;
64678;SDS011;51094;53.864;27.676;2023-03-26T18:48:27;2.20;;;2.20;;
64678;SDS011;51094;53.864;27.676;2023-03-26T18:50:56;2.10;;;2.10;;
64678;SDS011;51094;53.864;27.676;2023-03-26T18:53:38;1.90;;;1.90;;
64678;SDS011;51094;53.864;27.676;2023-03-26T18:58:50;1.80;;;1.80;;
64678;SDS011;51094;53.864;27.676;2023-03-26T19:01:17;2.05;;;2.05;;
64678;SDS011;51094;53.864;27.676;2023-03-26T19:03:51;2.00;;;2.00;;
64678;SDS011;51094;53.864;27.676;2023-03-26T19:06:20;1.80;;;1.80;;
64678;SDS011;51094;53.864;27.676;2023-03-26T19:08:48;2.03;;;2.03;;
64678;SDS011;51094;53.864;27.676;2023-03-26T19:11:16;2.20;;;2.20;;
64678;SDS011;51094;53.864;27.676;2023-03-26T19:13:43;2.08;;;2.08;;
64678;SDS011;51094;53.864;27.676;2023-03-26T19:16:24;2.17;;;2.17;;
64678;SDS011;51094;53.864;27.676;2023-03-26T19:18:59;2.10;;;2.10;;
64678;SDS011;51094;53.864;27.676;2023-03-26T19:21:31;2.20;;;2.20;;
64678;SDS011;51094;53.864;27.676;2023-03-26T19:24:00;1.90;;;1.90;;
64678;SDS011;51094;53.864;27.676;2023-03-26T19:26:29;1.83;;;1.83;;
64678;SDS011;51094;53.864;27.676;2023-03-26T19:29:02;2.10;;;2.10;;
64678;SDS011;51094;53.864;27.676;2023-03-26T19:42:11;2.00;;;2.00;;
64678;SDS011;51094;53.864;27.676;2023-03-26T19:44:41;1.92;;;1.92;;
64678;SDS011;51094;53.864;27.676;2023-03-26T19:47:16;1.80;;;1.80;;
64678;SDS011;51094;53.864;27.676;2023-03-26T19:49:52;2.10;;;2.10;;
64678;SDS011;51094;53.864;27.676;2023-03-26T19:52:22;1.60;;;1.60;;
64678;SDS011;51094;53.864;27.676;2023-03-26T19:57:40;1.98;;;1.98;;
64678;SDS011;51094;53.864;27.676;2023-03-26T20:00:09;1.80;;;1.80;;
64678;SDS011;51094;53.864;27.676;2023-03-26T20:02:41;1.70;;;1.70;;
64678;SDS011;51094;53.864;27.676;2023-03-26T20:05:20;1.70;;;1.70;;
64678;SDS011;51094;53.864;27.676;2023-03-26T20:07:49;1.60;;;1.60;;
64678;SDS011;51094;53.864;27.676;2023-03-26T20:10:16;1.75;;;1.75;;
64678;SDS011;51094;53.864;27.676;2023-03-26T20:12:43;1.70;;;1.70;;
64678;SDS011;51094;53.864;27.676;2023-03-26T20:15:15;1.60;;;1.60;;
64678;SDS011;51094;53.864;27.676;2023-03-26T20:17:46;1.80;;;1.80;;
64678;SDS011;51094;53.864;27.676;2023-03-26T20:20:17;1.70;;;1.70;;
64678;SDS011;51094;53.864;27.676;2023-03-26T20:22:45;1.80;;;1.80;;
64678;SDS011;51094;53.864;27.676;2023-03-26T20:25:15;1.65;;;1.65;;
64678;SDS011;51094;53.864;27.676;2023-03-26T20:27:45;1.70;;;1.70;;
64678;SDS011;51094;53.864;27.676;2023-03-26T20:30:12;1.75;;;1.75;;
64678;SDS011;51094;53.864;27.676;2023-03-26T20:32:44;1.90;;;1.90;;
64678;SDS011;51094;53.864;27.676;2023-03-26T20:35:24;1.70;;;1.70;;
64678;SDS011;51094;53.864;27.676;2023-03-26T20:38:01;1.77;;;1.77;;
64678;SDS011;51094;53.864;27.676;2023-03-26T20:40:28;1.80;;;1.80;;
64678;SDS011;51094;53.864;27.676;2023-03-26T20:42:56;1.75;;;1.75;;
64678;SDS011;51094;53.864;27.676;2023-03-26T20:45:23;1.80;;;1.80;;
64678;SDS011;51094;53.864;27.676;2023-03-26T20:47:51;1.70;;;1.70;;
64678;SDS011;51094;53.864;27.676;2023-03-26T20:50:20;1.88;;;1.88;;
64678;SDS011;51094;53.864;27.676;2023-03-26T20:52:49;2.05;;;2.05;;
64678;SDS011;51094;53.864;27.676;2023-03-26T20:55:16;1.60;;;1.60;;
64678;SDS011;51094;53.864;27.676;2023-03-26T20:57:47;1.90;;;1.90;;
64678;SDS011;51094;53.864;27.676;2023-03-26T21:00:14;1.70;;;1.70;;
64678;SDS011;51094;53.864;27.676;2023-03-26T21:02:49;1.80;;;1.80;;
64678;SDS011;51094;53.864;27.676;2023-03-26T21:05:20;1.85;;;1.85;;
64678;SDS011;51094;53.864;27.676;2023-03-26T21:10:17;1.77;;;1.77;;
64678;SDS011;51094;53.864;27.676;2023-03-26T21:15:18;1.80;;;1.80;;
64678;SDS011;51094;53.864;27.676;2023-03-26T21:17:49;2.17;;;2.17;;
64678;SDS011;51094;53.864;27.676;2023-03-26T21:20:18;1.85;;;1.85;;
64678;SDS011;51094;53.864;27.676;2023-03-26T21:28:02;1.83;;;1.83;;
64678;SDS011;51094;53.864;27.676;2023-03-26T21:31:01;1.75;;;1.75;;
64678;SDS011;51094;53.864;27.676;2023-03-26T21:33:29;1.77;;;1.77;;
64678;SDS011;51094;53.864;27.676;2023-03-26T21:35:57;2.05;;;2.05;;
64678;SDS011;51094;53.864;27.676;2023-03-26T21:38:28;2.15;;;2.15;;
64678;SDS011;51094;53.864;27.676;2023-03-26T21:40:59;2.08;;;2.08;;
64678;SDS011;51094;53.864;27.676;2023-03-26T21:43:28;2.28;;;2.28;;
64678;SDS011;51094;53.864;27.676;2023-03-26T21:45:56;2.25;;;2.25;;
64678;SDS011;51094;53.864;27.676;2023-03-26T21:48:24;2.40;;;2.40;;
64678;SDS011;51094;53.864;27.676;2023-03-26T21:50:52;2.40;;;2.40;;
64678;SDS011;51094;53.864;27.676;2023-03-26T21:53:20;2.50;;;2.50;;
64678;SDS011;51094;53.864;27.676;2023-03-26T21:55:51;2.42;;;2.42;;
64678;SDS011;51094;53.864;27.676;2023-03-26T21:58:35;2.50;;;2.50;;
64678;SDS011;51094;53.864;27.676;2023-03-26T22:01:14;2.70;;;2.70;;
64678;SDS011;51094;53.864;27.676;2023-03-26T22:06:37;2.60;;;2.60;;
64678;SDS011;51094;53.864;27.676;2023-03-26T22:09:11;2.60;;;2.60;;
64678;SDS011;51094;53.864;27.676;2023-03-26T22:11:43;2.63;;;2.63;;
64678;SDS011;51094;53.864;27.676;2023-03-26T22:14:11;2.63;;;2.63;;
64678;SDS011;51094;53.864;27.676;2023-03-26T22:16:39;2.63;;;2.63;;
64678;SDS011;51094;53.864;27.676;2023-03-26T22:19:07;2.63;;;2.63;;
64678;SDS011;51094;53.864;27.676;2023-03-26T22:21:34;2.75;;;2.75;;
64678;SDS011;51094;53.864;27.676;2023-03-26T22:24:01;2.90;;;2.90;;
64678;SDS011;51094;53.864;27.676;2023-03-26T22:26:29;2.50;;;2.50;;